sensor_id;sensor_type;location;lat;lon;timestamp;P1;durP1;ratioP1;P2;durP2;ratioP2
12958;SDS011;6544;51.666;6.634;2023-07-16T00:01:21;4.93;;;2.28;;
12958;SDS011;6544;51.666;6.634;2023-07-16T00:03:48;5.60;;;2.58;;
12958;SDS011;6544;51.666;6.634;2023-07-16T00:06:15;4.22;;;2.20;;
12958;SDS011;6544;51.666;6.634;2023-07-16T00:08:42;5.30;;;2.38;;
12958;SDS011;6544;51.666;6.634;2023-07-16T00:11:09;5.25;;;2.50;;
12958;SDS011;6544;51.666;6.634;2023-07-16T00:13:36;4.00;;;2.30;;
12958;SDS011;6544;51.666;6.634;2023-07-16T00:16:04;3.90;;;2.30;;
12958;SDS011;6544;51.666;6.634;2023-07-16T00:18:31;4.18;;;2.17;;
12958;SDS011;6544;51.666;6.634;2023-07-16T00:20:58;6.03;;;2.42;;
12958;SDS011;6544;51.666;6.634;2023-07-16T00:23:25;5.18;;;2.35;;
12958;SDS011;6544;51.666;6.634;2023-07-16T00:25:52;4.30;;;2.40;;
12958;SDS011;6544;51.666;6.634;2023-07-16T00:28:18;4.35;;;2.40;;
12958;SDS011;6544;51.666;6.634;2023-07-16T00:30:45;4.18;;;2.45;;
12958;SDS011;6544;51.666;6.634;2023-07-16T00:33:13;5.45;;;2.67;;
12958;SDS011;6544;51.666;6.634;2023-07-16T00:35:46;5.00;;;2.45;;
12958;SDS011;6544;51.666;6.634;2023-07-16T00:38:13;3.78;;;2.10;;
12958;SDS011;6544;51.666;6.634;2023-07-16T00:40:40;5.38;;;2.25;;
12958;SDS011;6544;51.666;6.634;2023-07-16T00:43:07;5.03;;;2.22;;
12958;SDS011;6544;51.666;6.634;2023-07-16T00:45:33;5.00;;;2.47;;
12958;SDS011;6544;51.666;6.634;2023-07-16T00:48:01;5.90;;;2.28;;
12958;SDS011;6544;51.666;6.634;2023-07-16T00:50:29;6.15;;;2.35;;
12958;SDS011;6544;51.666;6.634;2023-07-16T00:52:59;5.80;;;2.60;;
12958;SDS011;6544;51.666;6.634;2023-07-16T00:55:26;4.13;;;2.42;;
12958;SDS011;6544;51.666;6.634;2023-07-16T00:57:54;4.78;;;2.25;;
12958;SDS011;6544;51.666;6.634;2023-07-16T01:00:26;4.78;;;2.15;;
12958;SDS011;6544;51.666;6.634;2023-07-16T01:02:53;4.75;;;2.15;;
12958;SDS011;6544;51.666;6.634;2023-07-16T01:05:20;5.10;;;2.20;;
12958;SDS011;6544;51.666;6.634;2023-07-16T01:07:52;4.03;;;2.10;;
12958;SDS011;6544;51.666;6.634;2023-07-16T01:10:21;3.20;;;2.10;;
12958;SDS011;6544;51.666;6.634;2023-07-16T01:12:49;4.47;;;2.15;;
12958;SDS011;6544;51.666;6.634;2023-07-16T01:15:17;4.70;;;2.25;;
12958;SDS011;6544;51.666;6.634;2023-07-16T01:17:44;3.83;;;2.20;;
12958;SDS011;6544;51.666;6.634;2023-07-16T01:20:11;5.45;;;2.15;;
12958;SDS011;6544;51.666;6.634;2023-07-16T01:22:46;4.88;;;2.28;;
12958;SDS011;6544;51.666;6.634;2023-07-16T01:25:32;5.20;;;1.90;;
12958;SDS011;6544;51.666;6.634;2023-07-16T01:28:16;5.32;;;2.70;;
12958;SDS011;6544;51.666;6.634;2023-07-16T01:30:54;5.70;;;2.42;;
12958;SDS011;6544;51.666;6.634;2023-07-16T01:33:23;4.10;;;2.28;;
12958;SDS011;6544;51.666;6.634;2023-07-16T01:35:50;6.78;;;2.40;;
12958;SDS011;6544;51.666;6.634;2023-07-16T01:38:18;5.00;;;2.20;;
12958;SDS011;6544;51.666;6.634;2023-07-16T01:40:46;4.72;;;2.15;;
12958;SDS011;6544;51.666;6.634;2023-07-16T01:43:13;7.22;;;2.60;;
12958;SDS011;6544;51.666;6.634;2023-07-16T01:45:40;3.58;;;2.13;;
12958;SDS011;6544;51.666;6.634;2023-07-16T01:48:14;3.97;;;2.30;;
12958;SDS011;6544;51.666;6.634;2023-07-16T01:50:50;3.40;;;2.35;;
12958;SDS011;6544;51.666;6.634;2023-07-16T01:53:17;4.22;;;2.22;;
12958;SDS011;6544;51.666;6.634;2023-07-16T01:55:44;3.80;;;2.30;;
12958;SDS011;6544;51.666;6.634;2023-07-16T01:58:11;8.40;;;2.47;;
12958;SDS011;6544;51.666;6.634;2023-07-16T02:00:38;4.78;;;2.70;;
12958;SDS011;6544;51.666;6.634;2023-07-16T02:03:05;4.32;;;2.67;;
12958;SDS011;6544;51.666;6.634;2023-07-16T02:05:33;5.32;;;2.67;;
12958;SDS011;6544;51.666;6.634;2023-07-16T02:08:00;5.57;;;2.65;;
12958;SDS011;6544;51.666;6.634;2023-07-16T02:10:27;6.90;;;2.45;;
12958;SDS011;6544;51.666;6.634;2023-07-16T02:12:54;5.35;;;2.70;;
12958;SDS011;6544;51.666;6.634;2023-07-16T02:15:21;4.28;;;2.20;;
12958;SDS011;6544;51.666;6.634;2023-07-16T02:17:48;5.70;;;2.50;;
12958;SDS011;6544;51.666;6.634;2023-07-16T02:20:15;4.07;;;2.45;;
12958;SDS011;6544;51.666;6.634;2023-07-16T02:22:43;6.03;;;2.50;;
12958;SDS011;6544;51.666;6.634;2023-07-16T02:25:10;5.10;;;2.95;;
12958;SDS011;6544;51.666;6.634;2023-07-16T02:27:37;5.40;;;2.78;;
12958;SDS011;6544;51.666;6.634;2023-07-16T02:30:04;4.15;;;2.72;;
12958;SDS011;6544;51.666;6.634;2023-07-16T02:32:32;7.57;;;2.80;;
12958;SDS011;6544;51.666;6.634;2023-07-16T02:34:59;7.03;;;2.78;;
12958;SDS011;6544;51.666;6.634;2023-07-16T02:37:26;6.18;;;2.55;;
12958;SDS011;6544;51.666;6.634;2023-07-16T02:39:54;5.32;;;2.63;;
12958;SDS011;6544;51.666;6.634;2023-07-16T02:42:21;3.72;;;2.45;;
12958;SDS011;6544;51.666;6.634;2023-07-16T02:44:49;4.30;;;2.72;;
12958;SDS011;6544;51.666;6.634;2023-07-16T02:47:16;5.43;;;2.83;;
12958;SDS011;6544;51.666;6.634;2023-07-16T02:49:42;6.35;;;2.85;;
12958;SDS011;6544;51.666;6.634;2023-07-16T02:52:09;4.47;;;2.60;;
12958;SDS011;6544;51.666;6.634;2023-07-16T02:54:36;6.50;;;3.13;;
12958;SDS011;6544;51.666;6.634;2023-07-16T02:57:05;4.90;;;2.72;;
12958;SDS011;6544;51.666;6.634;2023-07-16T02:59:32;6.03;;;2.90;;
12958;SDS011;6544;51.666;6.634;2023-07-16T03:01:59;5.07;;;3.17;;
12958;SDS011;6544;51.666;6.634;2023-07-16T03:04:26;6.22;;;2.80;;
12958;SDS011;6544;51.666;6.634;2023-07-16T03:06:52;5.32;;;3.13;;
12958;SDS011;6544;51.666;6.634;2023-07-16T03:09:19;6.07;;;2.90;;
12958;SDS011;6544;51.666;6.634;2023-07-16T03:11:46;5.60;;;2.97;;
12958;SDS011;6544;51.666;6.634;2023-07-16T03:14:14;6.30;;;3.17;;
12958;SDS011;6544;51.666;6.634;2023-07-16T03:16:41;7.10;;;3.40;;
12958;SDS011;6544;51.666;6.634;2023-07-16T03:19:08;5.40;;;3.30;;
12958;SDS011;6544;51.666;6.634;2023-07-16T03:21:35;6.43;;;3.10;;
12958;SDS011;6544;51.666;6.634;2023-07-16T03:24:02;5.35;;;2.83;;
12958;SDS011;6544;51.666;6.634;2023-07-16T03:26:29;5.18;;;3.35;;
12958;SDS011;6544;51.666;6.634;2023-07-16T03:28:56;5.78;;;3.05;;
12958;SDS011;6544;51.666;6.634;2023-07-16T03:31:24;5.70;;;3.40;;
12958;SDS011;6544;51.666;6.634;2023-07-16T03:33:51;9.00;;;3.17;;
12958;SDS011;6544;51.666;6.634;2023-07-16T03:36:18;5.75;;;2.88;;
12958;SDS011;6544;51.666;6.634;2023-07-16T03:38:45;9.18;;;3.20;;
12958;SDS011;6544;51.666;6.634;2023-07-16T03:41:12;6.70;;;2.80;;
12958;SDS011;6544;51.666;6.634;2023-07-16T03:43:39;6.13;;;2.97;;
12958;SDS011;6544;51.666;6.634;2023-07-16T03:46:06;8.98;;;3.25;;
12958;SDS011;6544;51.666;6.634;2023-07-16T03:48:34;6.00;;;2.70;;
12958;SDS011;6544;51.666;6.634;2023-07-16T03:51:01;5.47;;;2.95;;
12958;SDS011;6544;51.666;6.634;2023-07-16T03:53:28;5.05;;;2.90;;
12958;SDS011;6544;51.666;6.634;2023-07-16T03:55:55;7.25;;;3.10;;
12958;SDS011;6544;51.666;6.634;2023-07-16T03:58:22;7.10;;;3.00;;
12958;SDS011;6544;51.666;6.634;2023-07-16T04:00:49;8.55;;;2.85;;
12958;SDS011;6544;51.666;6.634;2023-07-16T04:03:16;5.82;;;3.13;;
12958;SDS011;6544;51.666;6.634;2023-07-16T04:05:44;7.53;;;3.00;;
12958;SDS011;6544;51.666;6.634;2023-07-16T04:08:11;5.72;;;2.78;;
12958;SDS011;6544;51.666;6.634;2023-07-16T04:10:38;7.15;;;3.10;;
12958;SDS011;6544;51.666;6.634;2023-07-16T04:13:05;7.05;;;3.28;;
12958;SDS011;6544;51.666;6.634;2023-07-16T04:15:32;5.78;;;2.83;;
12958;SDS011;6544;51.666;6.634;2023-07-16T04:17:58;4.65;;;2.65;;
12958;SDS011;6544;51.666;6.634;2023-07-16T04:20:25;6.90;;;3.10;;
12958;SDS011;6544;51.666;6.634;2023-07-16T04:22:55;7.22;;;3.25;;
12958;SDS011;6544;51.666;6.634;2023-07-16T04:25:22;10.05;;;3.20;;
12958;SDS011;6544;51.666;6.634;2023-07-16T04:27:49;8.45;;;3.10;;
12958;SDS011;6544;51.666;6.634;2023-07-16T04:30:16;7.90;;;2.80;;
12958;SDS011;6544;51.666;6.634;2023-07-16T04:32:43;5.88;;;2.70;;
12958;SDS011;6544;51.666;6.634;2023-07-16T04:35:10;6.68;;;2.75;;
12958;SDS011;6544;51.666;6.634;2023-07-16T04:37:36;8.57;;;2.95;;
12958;SDS011;6544;51.666;6.634;2023-07-16T04:40:05;8.77;;;3.47;;
12958;SDS011;6544;51.666;6.634;2023-07-16T04:42:34;6.25;;;2.80;;
12958;SDS011;6544;51.666;6.634;2023-07-16T04:45:01;8.75;;;3.38;;
12958;SDS011;6544;51.666;6.634;2023-07-16T04:47:28;10.05;;;3.30;;
12958;SDS011;6544;51.666;6.634;2023-07-16T04:49:54;8.73;;;3.35;;
12958;SDS011;6544;51.666;6.634;2023-07-16T04:52:21;7.53;;;3.13;;
12958;SDS011;6544;51.666;6.634;2023-07-16T04:54:48;8.73;;;3.33;;
12958;SDS011;6544;51.666;6.634;2023-07-16T04:57:16;7.97;;;3.78;;
12958;SDS011;6544;51.666;6.634;2023-07-16T04:59:43;7.53;;;3.58;;
12958;SDS011;6544;51.666;6.634;2023-07-16T05:02:10;6.20;;;3.70;;
12958;SDS011;6544;51.666;6.634;2023-07-16T05:04:37;6.63;;;3.80;;
12958;SDS011;6544;51.666;6.634;2023-07-16T05:07:04;7.75;;;3.70;;
12958;SDS011;6544;51.666;6.634;2023-07-16T05:09:31;6.93;;;3.45;;
12958;SDS011;6544;51.666;6.634;2023-07-16T05:11:58;8.02;;;3.35;;
12958;SDS011;6544;51.666;6.634;2023-07-16T05:14:27;8.02;;;3.92;;
12958;SDS011;6544;51.666;6.634;2023-07-16T05:16:54;10.65;;;3.80;;
12958;SDS011;6544;51.666;6.634;2023-07-16T05:19:21;16.63;;;4.03;;
12958;SDS011;6544;51.666;6.634;2023-07-16T05:21:48;9.65;;;3.90;;
12958;SDS011;6544;51.666;6.634;2023-07-16T05:24:15;12.23;;;4.45;;
12958;SDS011;6544;51.666;6.634;2023-07-16T05:26:42;9.20;;;3.70;;
12958;SDS011;6544;51.666;6.634;2023-07-16T05:29:08;10.38;;;4.00;;
12958;SDS011;6544;51.666;6.634;2023-07-16T05:31:37;7.53;;;3.33;;
12958;SDS011;6544;51.666;6.634;2023-07-16T05:34:04;6.57;;;3.55;;
12958;SDS011;6544;51.666;6.634;2023-07-16T05:36:30;9.65;;;3.60;;
12958;SDS011;6544;51.666;6.634;2023-07-16T05:38:57;11.65;;;3.67;;
12958;SDS011;6544;51.666;6.634;2023-07-16T05:41:24;6.93;;;3.47;;
12958;SDS011;6544;51.666;6.634;2023-07-16T05:43:51;8.25;;;3.67;;
12958;SDS011;6544;51.666;6.634;2023-07-16T05:46:18;11.80;;;3.83;;
12958;SDS011;6544;51.666;6.634;2023-07-16T05:48:46;12.60;;;3.80;;
12958;SDS011;6544;51.666;6.634;2023-07-16T05:51:13;12.23;;;3.53;;
12958;SDS011;6544;51.666;6.634;2023-07-16T05:53:40;12.18;;;3.85;;
12958;SDS011;6544;51.666;6.634;2023-07-16T05:56:07;6.95;;;3.40;;
12958;SDS011;6544;51.666;6.634;2023-07-16T05:58:34;8.38;;;3.38;;
12958;SDS011;6544;51.666;6.634;2023-07-16T06:01:01;8.57;;;3.28;;
12958;SDS011;6544;51.666;6.634;2023-07-16T06:03:28;10.15;;;3.80;;
12958;SDS011;6544;51.666;6.634;2023-07-16T06:05:56;13.88;;;3.70;;
12958;SDS011;6544;51.666;6.634;2023-07-16T06:08:23;8.73;;;3.40;;
12958;SDS011;6544;51.666;6.634;2023-07-16T06:10:50;10.90;;;3.85;;
12958;SDS011;6544;51.666;6.634;2023-07-16T06:13:17;9.55;;;3.90;;
12958;SDS011;6544;51.666;6.634;2023-07-16T06:15:45;7.32;;;3.53;;
12958;SDS011;6544;51.666;6.634;2023-07-16T06:18:12;11.30;;;3.95;;
12958;SDS011;6544;51.666;6.634;2023-07-16T06:20:45;9.15;;;3.47;;
12958;SDS011;6544;51.666;6.634;2023-07-16T06:23:13;8.75;;;3.75;;
12958;SDS011;6544;51.666;6.634;2023-07-16T06:25:41;10.30;;;3.90;;
12958;SDS011;6544;51.666;6.634;2023-07-16T06:28:09;12.27;;;3.90;;
12958;SDS011;6544;51.666;6.634;2023-07-16T06:30:36;9.52;;;4.30;;
12958;SDS011;6544;51.666;6.634;2023-07-16T06:33:04;8.23;;;4.38;;
12958;SDS011;6544;51.666;6.634;2023-07-16T06:35:31;13.80;;;4.15;;
12958;SDS011;6544;51.666;6.634;2023-07-16T06:37:58;9.32;;;4.13;;
12958;SDS011;6544;51.666;6.634;2023-07-16T06:40:26;13.48;;;4.00;;
12958;SDS011;6544;51.666;6.634;2023-07-16T06:42:55;11.75;;;4.50;;
12958;SDS011;6544;51.666;6.634;2023-07-16T06:45:22;7.70;;;4.40;;
12958;SDS011;6544;51.666;6.634;2023-07-16T06:47:49;10.90;;;4.30;;
12958;SDS011;6544;51.666;6.634;2023-07-16T06:50:15;12.57;;;4.20;;
12958;SDS011;6544;51.666;6.634;2023-07-16T06:52:42;8.05;;;3.92;;
12958;SDS011;6544;51.666;6.634;2023-07-16T06:55:09;10.25;;;4.43;;
12958;SDS011;6544;51.666;6.634;2023-07-16T06:57:38;8.70;;;4.25;;
12958;SDS011;6544;51.666;6.634;2023-07-16T07:00:05;7.97;;;4.07;;
12958;SDS011;6544;51.666;6.634;2023-07-16T07:02:36;8.48;;;4.10;;
12958;SDS011;6544;51.666;6.634;2023-07-16T07:05:03;11.50;;;4.40;;
12958;SDS011;6544;51.666;6.634;2023-07-16T07:07:30;6.82;;;4.13;;
12958;SDS011;6544;51.666;6.634;2023-07-16T07:09:57;12.70;;;4.38;;
12958;SDS011;6544;51.666;6.634;2023-07-16T07:12:24;8.18;;;4.30;;
12958;SDS011;6544;51.666;6.634;2023-07-16T07:14:52;6.28;;;4.18;;
12958;SDS011;6544;51.666;6.634;2023-07-16T07:17:19;11.00;;;4.40;;
12958;SDS011;6544;51.666;6.634;2023-07-16T07:19:46;12.95;;;4.82;;
12958;SDS011;6544;51.666;6.634;2023-07-16T07:22:12;9.73;;;5.25;;
12958;SDS011;6544;51.666;6.634;2023-07-16T07:24:39;9.27;;;4.22;;
12958;SDS011;6544;51.666;6.634;2023-07-16T07:27:06;13.40;;;5.40;;
12958;SDS011;6544;51.666;6.634;2023-07-16T07:29:33;10.23;;;4.70;;
12958;SDS011;6544;51.666;6.634;2023-07-16T07:32:01;8.43;;;4.40;;
12958;SDS011;6544;51.666;6.634;2023-07-16T07:34:28;14.02;;;5.40;;
12958;SDS011;6544;51.666;6.634;2023-07-16T07:36:55;12.48;;;5.00;;
12958;SDS011;6544;51.666;6.634;2023-07-16T07:39:22;14.52;;;5.75;;
12958;SDS011;6544;51.666;6.634;2023-07-16T07:41:49;13.65;;;5.53;;
12958;SDS011;6544;51.666;6.634;2023-07-16T07:44:16;11.20;;;5.13;;
12958;SDS011;6544;51.666;6.634;2023-07-16T07:46:42;13.90;;;4.50;;
12958;SDS011;6544;51.666;6.634;2023-07-16T07:49:11;10.43;;;4.90;;
12958;SDS011;6544;51.666;6.634;2023-07-16T07:51:38;9.77;;;5.03;;
12958;SDS011;6544;51.666;6.634;2023-07-16T07:54:05;9.00;;;4.50;;
12958;SDS011;6544;51.666;6.634;2023-07-16T07:56:32;9.50;;;5.07;;
12958;SDS011;6544;51.666;6.634;2023-07-16T07:58:59;11.05;;;5.40;;
12958;SDS011;6544;51.666;6.634;2023-07-16T08:01:26;9.20;;;4.78;;
12958;SDS011;6544;51.666;6.634;2023-07-16T08:03:53;14.20;;;4.72;;
12958;SDS011;6544;51.666;6.634;2023-07-16T08:06:21;14.45;;;5.30;;
12958;SDS011;6544;51.666;6.634;2023-07-16T08:08:48;11.38;;;5.32;;
12958;SDS011;6544;51.666;6.634;2023-07-16T08:11:15;13.25;;;4.85;;
12958;SDS011;6544;51.666;6.634;2023-07-16T08:13:42;10.30;;;5.15;;
12958;SDS011;6544;51.666;6.634;2023-07-16T08:16:08;8.77;;;4.65;;
12958;SDS011;6544;51.666;6.634;2023-07-16T08:18:35;9.90;;;5.03;;
12958;SDS011;6544;51.666;6.634;2023-07-16T08:21:02;9.50;;;4.90;;
12958;SDS011;6544;51.666;6.634;2023-07-16T08:23:30;10.70;;;4.72;;
12958;SDS011;6544;51.666;6.634;2023-07-16T08:25:57;8.43;;;4.78;;
12958;SDS011;6544;51.666;6.634;2023-07-16T08:28:24;11.48;;;5.05;;
12958;SDS011;6544;51.666;6.634;2023-07-16T08:30:52;10.70;;;4.65;;
12958;SDS011;6544;51.666;6.634;2023-07-16T08:33:19;11.63;;;4.90;;
12958;SDS011;6544;51.666;6.634;2023-07-16T08:35:45;9.95;;;4.72;;
12958;SDS011;6544;51.666;6.634;2023-07-16T08:38:12;9.48;;;4.63;;
12958;SDS011;6544;51.666;6.634;2023-07-16T08:40:40;9.65;;;4.80;;
12958;SDS011;6544;51.666;6.634;2023-07-16T08:43:08;8.43;;;4.65;;
12958;SDS011;6544;51.666;6.634;2023-07-16T08:45:39;8.35;;;4.60;;
12958;SDS011;6544;51.666;6.634;2023-07-16T08:48:07;8.75;;;4.95;;
12958;SDS011;6544;51.666;6.634;2023-07-16T08:50:35;10.15;;;4.60;;
12958;SDS011;6544;51.666;6.634;2023-07-16T08:53:03;11.38;;;4.60;;
12958;SDS011;6544;51.666;6.634;2023-07-16T08:55:31;9.18;;;4.72;;
12958;SDS011;6544;51.666;6.634;2023-07-16T08:57:59;7.43;;;4.55;;
12958;SDS011;6544;51.666;6.634;2023-07-16T09:00:28;10.30;;;4.68;;
12958;SDS011;6544;51.666;6.634;2023-07-16T09:02:56;11.18;;;5.07;;
12958;SDS011;6544;51.666;6.634;2023-07-16T09:05:23;9.70;;;4.32;;
12958;SDS011;6544;51.666;6.634;2023-07-16T09:07:50;7.22;;;3.78;;
12958;SDS011;6544;51.666;6.634;2023-07-16T09:10:17;11.45;;;4.30;;
12958;SDS011;6544;51.666;6.634;2023-07-16T09:12:44;10.85;;;4.70;;
12958;SDS011;6544;51.666;6.634;2023-07-16T09:15:15;8.70;;;4.80;;
12958;SDS011;6544;51.666;6.634;2023-07-16T09:17:46;7.75;;;4.70;;
12958;SDS011;6544;51.666;6.634;2023-07-16T09:20:14;7.30;;;4.45;;
12958;SDS011;6544;51.666;6.634;2023-07-16T09:22:42;8.77;;;4.75;;
12958;SDS011;6544;51.666;6.634;2023-07-16T09:25:09;9.98;;;3.90;;
12958;SDS011;6544;51.666;6.634;2023-07-16T09:27:36;8.07;;;3.83;;
12958;SDS011;6544;51.666;6.634;2023-07-16T09:30:03;7.65;;;3.70;;
12958;SDS011;6544;51.666;6.634;2023-07-16T09:32:36;8.15;;;4.18;;
12958;SDS011;6544;51.666;6.634;2023-07-16T09:35:09;6.97;;;3.90;;
12958;SDS011;6544;51.666;6.634;2023-07-16T09:37:36;6.28;;;4.10;;
12958;SDS011;6544;51.666;6.634;2023-07-16T09:40:04;7.47;;;4.07;;
12958;SDS011;6544;51.666;6.634;2023-07-16T09:42:34;8.30;;;4.00;;
12958;SDS011;6544;51.666;6.634;2023-07-16T09:45:03;7.93;;;3.95;;
12958;SDS011;6544;51.666;6.634;2023-07-16T09:47:33;6.97;;;3.67;;
12958;SDS011;6544;51.666;6.634;2023-07-16T09:50:01;11.00;;;4.35;;
12958;SDS011;6544;51.666;6.634;2023-07-16T09:52:29;8.00;;;3.95;;
12958;SDS011;6544;51.666;6.634;2023-07-16T09:54:57;8.18;;;3.67;;
12958;SDS011;6544;51.666;6.634;2023-07-16T09:57:28;9.50;;;4.00;;
12958;SDS011;6544;51.666;6.634;2023-07-16T09:59:59;6.85;;;3.90;;
12958;SDS011;6544;51.666;6.634;2023-07-16T10:02:32;5.93;;;3.63;;
12958;SDS011;6544;51.666;6.634;2023-07-16T10:05:06;8.07;;;3.83;;
12958;SDS011;6544;51.666;6.634;2023-07-16T10:07:38;9.43;;;4.38;;
12958;SDS011;6544;51.666;6.634;2023-07-16T10:10:07;9.38;;;3.70;;
12958;SDS011;6544;51.666;6.634;2023-07-16T10:12:35;7.40;;;4.10;;
12958;SDS011;6544;51.666;6.634;2023-07-16T10:15:03;7.00;;;4.00;;
12958;SDS011;6544;51.666;6.634;2023-07-16T10:17:33;6.88;;;4.03;;
12958;SDS011;6544;51.666;6.634;2023-07-16T10:20:00;6.28;;;3.78;;
12958;SDS011;6544;51.666;6.634;2023-07-16T10:22:35;8.50;;;4.15;;
12958;SDS011;6544;51.666;6.634;2023-07-16T10:25:03;6.25;;;3.33;;
12958;SDS011;6544;51.666;6.634;2023-07-16T10:27:34;6.32;;;3.75;;
12958;SDS011;6544;51.666;6.634;2023-07-16T10:30:02;6.07;;;3.80;;
12958;SDS011;6544;51.666;6.634;2023-07-16T10:32:31;5.78;;;3.47;;
12958;SDS011;6544;51.666;6.634;2023-07-16T10:34:58;7.22;;;3.60;;
12958;SDS011;6544;51.666;6.634;2023-07-16T10:37:26;7.43;;;3.47;;
12958;SDS011;6544;51.666;6.634;2023-07-16T10:39:55;4.65;;;3.10;;
12958;SDS011;6544;51.666;6.634;2023-07-16T10:42:23;7.80;;;3.38;;
12958;SDS011;6544;51.666;6.634;2023-07-16T10:44:51;7.00;;;3.42;;
12958;SDS011;6544;51.666;6.634;2023-07-16T10:47:19;5.00;;;3.22;;
12958;SDS011;6544;51.666;6.634;2023-07-16T10:49:47;7.50;;;3.45;;
12958;SDS011;6544;51.666;6.634;2023-07-16T10:52:15;8.82;;;3.95;;
12958;SDS011;6544;51.666;6.634;2023-07-16T10:54:42;5.63;;;3.20;;
12958;SDS011;6544;51.666;6.634;2023-07-16T10:57:10;8.63;;;3.50;;
12958;SDS011;6544;51.666;6.634;2023-07-16T10:59:38;5.65;;;3.70;;
12958;SDS011;6544;51.666;6.634;2023-07-16T11:02:08;9.82;;;3.60;;
12958;SDS011;6544;51.666;6.634;2023-07-16T11:04:37;7.05;;;3.30;;
12958;SDS011;6544;51.666;6.634;2023-07-16T11:07:05;13.50;;;4.05;;
12958;SDS011;6544;51.666;6.634;2023-07-16T11:09:33;6.25;;;3.42;;
12958;SDS011;6544;51.666;6.634;2023-07-16T11:12:05;7.60;;;3.38;;
12958;SDS011;6544;51.666;6.634;2023-07-16T11:14:34;7.68;;;3.50;;
12958;SDS011;6544;51.666;6.634;2023-07-16T11:17:05;6.32;;;3.20;;
12958;SDS011;6544;51.666;6.634;2023-07-16T11:19:34;8.05;;;3.58;;
12958;SDS011;6544;51.666;6.634;2023-07-16T11:22:03;5.28;;;3.40;;
12958;SDS011;6544;51.666;6.634;2023-07-16T11:24:38;7.55;;;3.40;;
12958;SDS011;6544;51.666;6.634;2023-07-16T11:27:11;8.02;;;3.40;;
12958;SDS011;6544;51.666;6.634;2023-07-16T11:29:44;6.50;;;3.30;;
12958;SDS011;6544;51.666;6.634;2023-07-16T11:32:11;7.13;;;3.60;;
12958;SDS011;6544;51.666;6.634;2023-07-16T11:34:51;5.03;;;3.08;;
12958;SDS011;6544;51.666;6.634;2023-07-16T11:37:19;5.22;;;3.13;;
12958;SDS011;6544;51.666;6.634;2023-07-16T11:39:47;5.97;;;2.90;;
12958;SDS011;6544;51.666;6.634;2023-07-16T11:42:14;6.07;;;3.47;;
12958;SDS011;6544;51.666;6.634;2023-07-16T11:44:50;6.25;;;3.50;;
12958;SDS011;6544;51.666;6.634;2023-07-16T11:47:17;4.88;;;3.08;;
12958;SDS011;6544;51.666;6.634;2023-07-16T11:49:44;5.13;;;3.03;;
12958;SDS011;6544;51.666;6.634;2023-07-16T11:52:11;4.97;;;3.10;;
12958;SDS011;6544;51.666;6.634;2023-07-16T11:54:38;5.32;;;3.00;;
12958;SDS011;6544;51.666;6.634;2023-07-16T11:57:05;7.00;;;3.33;;
12958;SDS011;6544;51.666;6.634;2023-07-16T11:59:32;4.68;;;3.20;;
12958;SDS011;6544;51.666;6.634;2023-07-16T12:02:00;6.35;;;3.50;;
12958;SDS011;6544;51.666;6.634;2023-07-16T12:04:28;7.47;;;3.55;;
12958;SDS011;6544;51.666;6.634;2023-07-16T12:06:54;9.02;;;3.50;;
12958;SDS011;6544;51.666;6.634;2023-07-16T12:09:21;5.07;;;3.13;;
12958;SDS011;6544;51.666;6.634;2023-07-16T12:11:48;4.28;;;2.97;;
12958;SDS011;6544;51.666;6.634;2023-07-16T12:14:15;6.38;;;2.85;;
12958;SDS011;6544;51.666;6.634;2023-07-16T12:16:42;6.40;;;3.00;;
12958;SDS011;6544;51.666;6.634;2023-07-16T12:19:10;5.45;;;2.78;;
12958;SDS011;6544;51.666;6.634;2023-07-16T12:21:37;8.35;;;2.97;;
12958;SDS011;6544;51.666;6.634;2023-07-16T12:24:05;6.03;;;3.15;;
12958;SDS011;6544;51.666;6.634;2023-07-16T12:26:32;5.72;;;3.00;;
12958;SDS011;6544;51.666;6.634;2023-07-16T12:28:59;4.68;;;2.97;;
12958;SDS011;6544;51.666;6.634;2023-07-16T12:31:27;7.18;;;2.85;;
12958;SDS011;6544;51.666;6.634;2023-07-16T12:33:54;12.55;;;3.30;;
12958;SDS011;6544;51.666;6.634;2023-07-16T12:36:23;4.95;;;2.60;;
12958;SDS011;6544;51.666;6.634;2023-07-16T12:38:50;4.15;;;2.42;;
12958;SDS011;6544;51.666;6.634;2023-07-16T12:41:17;4.57;;;2.50;;
12958;SDS011;6544;51.666;6.634;2023-07-16T12:43:44;5.85;;;2.85;;
12958;SDS011;6544;51.666;6.634;2023-07-16T12:46:11;4.40;;;2.75;;
12958;SDS011;6544;51.666;6.634;2023-07-16T12:48:38;5.20;;;2.50;;
12958;SDS011;6544;51.666;6.634;2023-07-16T12:51:05;4.35;;;2.58;;
12958;SDS011;6544;51.666;6.634;2023-07-16T12:53:33;4.35;;;2.70;;
12958;SDS011;6544;51.666;6.634;2023-07-16T12:56:00;5.65;;;2.95;;
12958;SDS011;6544;51.666;6.634;2023-07-16T12:58:28;6.10;;;3.00;;
12958;SDS011;6544;51.666;6.634;2023-07-16T13:00:54;6.88;;;2.85;;
12958;SDS011;6544;51.666;6.634;2023-07-16T13:03:21;5.72;;;2.35;;
12958;SDS011;6544;51.666;6.634;2023-07-16T13:05:48;5.10;;;2.53;;
12958;SDS011;6544;51.666;6.634;2023-07-16T13:08:15;3.65;;;2.53;;
12958;SDS011;6544;51.666;6.634;2023-07-16T13:10:43;4.63;;;2.38;;
12958;SDS011;6544;51.666;6.634;2023-07-16T13:13:10;3.88;;;2.50;;
12958;SDS011;6544;51.666;6.634;2023-07-16T13:15:37;4.78;;;2.60;;
12958;SDS011;6544;51.666;6.634;2023-07-16T13:18:04;3.60;;;2.40;;
12958;SDS011;6544;51.666;6.634;2023-07-16T13:20:31;3.88;;;2.47;;
12958;SDS011;6544;51.666;6.634;2023-07-16T13:22:58;4.40;;;2.38;;
12958;SDS011;6544;51.666;6.634;2023-07-16T13:25:25;6.18;;;2.53;;
12958;SDS011;6544;51.666;6.634;2023-07-16T13:27:55;4.47;;;2.20;;
12958;SDS011;6544;51.666;6.634;2023-07-16T13:30:23;3.47;;;2.05;;
12958;SDS011;6544;51.666;6.634;2023-07-16T13:32:50;6.60;;;2.58;;
12958;SDS011;6544;51.666;6.634;2023-07-16T13:35:20;6.35;;;2.10;;
12958;SDS011;6544;51.666;6.634;2023-07-16T13:37:47;3.38;;;2.25;;
12958;SDS011;6544;51.666;6.634;2023-07-16T13:40:14;5.03;;;2.35;;
12958;SDS011;6544;51.666;6.634;2023-07-16T13:42:41;2.53;;;1.98;;
12958;SDS011;6544;51.666;6.634;2023-07-16T13:45:10;3.90;;;2.40;;
12958;SDS011;6544;51.666;6.634;2023-07-16T13:47:37;4.43;;;2.67;;
12958;SDS011;6544;51.666;6.634;2023-07-16T13:50:04;4.18;;;2.55;;
12958;SDS011;6544;51.666;6.634;2023-07-16T13:52:31;6.00;;;3.90;;
12958;SDS011;6544;51.666;6.634;2023-07-16T13:54:59;7.30;;;3.42;;
12958;SDS011;6544;51.666;6.634;2023-07-16T13:57:26;4.88;;;2.50;;
12958;SDS011;6544;51.666;6.634;2023-07-16T13:59:53;4.63;;;2.50;;
12958;SDS011;6544;51.666;6.634;2023-07-16T14:02:21;4.05;;;2.55;;
12958;SDS011;6544;51.666;6.634;2023-07-16T14:04:48;3.58;;;2.20;;
12958;SDS011;6544;51.666;6.634;2023-07-16T14:07:15;4.63;;;2.40;;
12958;SDS011;6544;51.666;6.634;2023-07-16T14:09:42;5.45;;;2.50;;
12958;SDS011;6544;51.666;6.634;2023-07-16T14:12:09;5.55;;;2.70;;
12958;SDS011;6544;51.666;6.634;2023-07-16T14:14:37;4.43;;;2.50;;
12958;SDS011;6544;51.666;6.634;2023-07-16T14:17:04;5.65;;;2.83;;
12958;SDS011;6544;51.666;6.634;2023-07-16T14:19:33;5.63;;;2.78;;
12958;SDS011;6544;51.666;6.634;2023-07-16T14:22:00;5.28;;;2.70;;
12958;SDS011;6544;51.666;6.634;2023-07-16T14:24:27;5.18;;;2.40;;
12958;SDS011;6544;51.666;6.634;2023-07-16T14:26:53;4.57;;;2.70;;
12958;SDS011;6544;51.666;6.634;2023-07-16T14:29:24;6.80;;;3.60;;
12958;SDS011;6544;51.666;6.634;2023-07-16T14:31:52;5.60;;;2.58;;
12958;SDS011;6544;51.666;6.634;2023-07-16T14:34:19;4.13;;;2.80;;
12958;SDS011;6544;51.666;6.634;2023-07-16T14:36:47;4.32;;;2.85;;
12958;SDS011;6544;51.666;6.634;2023-07-16T14:39:14;5.78;;;2.90;;
12958;SDS011;6544;51.666;6.634;2023-07-16T14:41:41;5.10;;;2.70;;
12958;SDS011;6544;51.666;6.634;2023-07-16T14:44:08;6.85;;;2.92;;
12958;SDS011;6544;51.666;6.634;2023-07-16T14:46:35;5.53;;;3.00;;
12958;SDS011;6544;51.666;6.634;2023-07-16T14:49:02;8.02;;;2.80;;
12958;SDS011;6544;51.666;6.634;2023-07-16T14:51:29;4.70;;;2.50;;
12958;SDS011;6544;51.666;6.634;2023-07-16T14:53:57;5.28;;;2.95;;
12958;SDS011;6544;51.666;6.634;2023-07-16T14:56:24;5.43;;;2.35;;
12958;SDS011;6544;51.666;6.634;2023-07-16T14:58:52;5.63;;;2.97;;
12958;SDS011;6544;51.666;6.634;2023-07-16T15:01:19;6.43;;;2.80;;
12958;SDS011;6544;51.666;6.634;2023-07-16T15:03:46;5.03;;;2.60;;